Time;durP1;ratioP1;P1;durP2;ratioP2;P2;SDS_P1;SDS_P2;PMS_P1;PMS_P2;Temp;Humidity;BMP_temperature;BMP_pressure;BME280_temperature;BME280_humidity;BME280_pressure;Samples;Min_cycle;Max_cycle;Signal;HPM_P1;HPM_P2
2024/02/21 00:00:54;;;;;;;35.75;20.55;;;;;;;5.70;100.00;101188.88;4992145;28;20073;-71
2024/02/21 00:03:20;;;;;;;28.13;17.55;;;;;;;5.78;100.00;101190.25;4992717;28;20057;-68
2024/02/21 00:05:45;;;;;;;28.05;17.23;;;;;;;6.30;100.00;101260.44;4991860;28;20033;-69
2024/02/21 00:08:11;;;;;;;30.98;17.55;;;;;;;6.39;100.00;101272.13;4991595;28;20113;-68
2024/02/21 00:10:36;;;;;;;29.80;18.13;;;;;;;6.32;100.00;101242.63;4992308;28;20034;-68
2024/02/21 00:13:03;;;;;;;27.98;17.48;;;;;;;6.56;100.00;101268.13;4990717;28;20077;-67
2024/02/21 00:15:28;;;;;;;34.42;20.55;;;;;;;6.42;100.00;101239.88;4989805;28;20050;-69
2024/02/21 00:17:54;;;;;;;29.10;18.40;;;;;;;6.11;100.00;101195.94;4991778;28;20930;-71
2024/02/21 00:20:20;;;;;;;33.25;19.13;;;;;;;6.53;100.00;101273.94;4991643;28;20034;-67
2024/02/21 00:22:45;;;;;;;36.00;17.40;;;;;;;6.41;100.00;101239.78;4991334;28;20410;-68
2024/02/21 00:25:11;;;;;;;26.42;16.23;;;;;;;6.54;100.00;101267.13;4991564;28;20038;-68
2024/02/21 00:27:37;;;;;;;29.05;16.75;;;;;;;6.26;100.00;101244.78;4991597;28;20038;-67
2024/02/21 00:30:03;;;;;;;27.77;16.27;;;;;;;6.17;100.00;101265.56;4991674;28;20383;-68
2024/02/21 00:32:28;;;;;;;25.15;14.98;;;;;;;5.13;100.00;101121.81;4991253;28;20038;-68
2024/02/21 00:34:54;;;;;;;30.25;16.27;;;;;;;5.91;100.00;101272.31;4991463;28;20213;-71
2024/02/21 00:37:20;;;;;;;31.48;17.17;;;;;;;5.71;100.00;101200.88;4991013;28;20128;-68
2024/02/21 00:39:45;;;;;;;30.10;18.58;;;;;;;6.09;100.00;101272.75;4991075;28;20536;-68
2024/02/21 00:42:11;;;;;;;32.75;18.92;;;;;;;6.05;100.00;101267.28;4986698;28;20026;-67
2024/02/21 00:44:36;;;;;;;30.02;17.25;;;;;;;5.99;100.00;101242.13;4989813;28;20104;-72
2024/02/21 00:47:02;;;;;;;41.28;20.00;;;;;;;6.18;100.00;101269.91;4986625;28;20497;-68
2024/02/21 00:49:27;;;;;;;35.80;19.45;;;;;;;5.35;100.00;101127.63;4988572;28;20037;-71
2024/02/21 00:51:53;;;;;;;28.85;17.42;;;;;;;6.13;100.00;101264.47;4990563;28;20068;-69
2024/02/21 00:54:18;;;;;;;27.95;16.48;;;;;;;6.16;100.00;101258.66;4990638;28;20043;-70
2024/02/21 00:56:44;;;;;;;26.38;15.95;;;;;;;6.18;100.00;101262.22;4990413;28;20121;-69
2024/02/21 00:59:09;;;;;;;27.65;16.58;;;;;;;6.18;100.00;101266.44;4990031;28;20031;-69
2024/02/21 01:01:35;;;;;;;22.70;14.15;;;;;;;6.19;100.00;101263.09;4990921;28;20037;-71
2024/02/21 01:04:00;;;;;;;26.98;14.65;;;;;;;6.23;100.00;101258.28;4990838;28;20500;-70
2024/02/21 01:06:26;;;;;;;26.50;15.18;;;;;;;6.03;100.00;101235.53;4991177;28;20038;-70
2024/02/21 01:08:51;;;;;;;24.35;13.52;;;;;;;5.93;100.00;101257.94;4990242;28;20066;-69
2024/02/21 01:11:17;;;;;;;25.45;15.23;;;;;;;5.69;100.00;101249.44;4990405;28;20038;-70
2024/02/21 01:13:42;;;;;;;23.40;15.30;;;;;;;5.66;100.00;101247.56;4990511;28;20042;-69
2024/02/21 01:16:08;;;;;;;29.33;15.75;;;;;;;5.72;100.00;101252.25;4991216;28;20033;-70
2024/02/21 01:18:34;;;;;;;23.98;15.68;;;;;;;5.80;100.00;101247.63;4979614;28;20048;-70
2024/02/21 01:20:59;;;;;;;26.02;14.52;;;;;;;5.83;100.00;101243.59;4990279;28;20498;-68
2024/02/21 01:23:25;;;;;;;26.67;16.23;;;;;;;5.67;100.00;101222.84;4989711;28;20658;-71
2024/02/21 01:25:51;;;;;;;26.38;15.02;;;;;;;5.72;100.00;101241.06;4989983;28;20096;-67
2024/02/21 01:28:18;;;;;;;25.58;15.18;;;;;;;5.60;100.00;101221.53;4990071;28;20426;-69
2024/02/21 01:30:43;;;;;;;26.25;15.10;;;;;;;4.69;100.00;101057.41;4989996;28;20038;-68
2024/02/21 01:33:09;;;;;;;30.30;17.08;;;;;;;5.66;100.00;101231.31;4990125;28;20541;-69
2024/02/21 01:35:35;;;;;;;25.48;15.65;;;;;;;5.65;100.00;101207.34;4990228;28;20034;-70
2024/02/21 01:38:01;;;;;;;31.20;16.77;;;;;;;5.24;100.00;101138.81;4990180;28;20383;-67
2024/02/21 01:40:26;;;;;;;24.92;15.07;;;;;;;5.77;100.00;101238.06;4990028;28;20037;-69
2024/02/21 01:42:54;;;;;;;27.23;16.05;;;;;;;5.85;100.00;101223.22;4990136;28;20106;-68
2024/02/21 01:45:20;;;;;;;24.17;14.35;;;;;;;5.89;100.00;101226.88;4989980;28;20030;-72
2024/02/21 01:47:46;;;;;;;22.92;14.45;;;;;;;5.96;100.00;101234.19;4990009;28;20034;-69
2024/02/21 01:50:12;;;;;;;23.27;14.52;;;;;;;5.94;100.00;101231.53;4991007;28;20581;-71
2024/02/21 01:52:38;;;;;;;24.55;14.68;;;;;;;5.92;100.00;101234.75;4991345;28;20041;-69
2024/02/21 01:55:05;;;;;;;22.08;13.48;;;;;;;5.95;100.00;101237.53;4989800;28;20429;-72
2024/02/21 01:57:32;;;;;;;22.70;14.05;;;;;;;5.85;100.00;101212.97;4990226;28;20061;-69
2024/02/21 01:59:57;;;;;;;24.65;14.90;;;;;;;5.95;100.00;101232.41;4988411;28;20037;-68
2024/02/21 02:02:24;;;;;;;22.73;14.35;;;;;;;5.97;100.00;101233.41;4990104;28;20031;-68
2024/02/21 02:04:51;;;;;;;23.55;14.07;;;;;;;5.57;100.00;101167.53;4989994;28;20078;-69
2024/02/21 02:07:17;;;;;;;26.50;14.98;;;;;;;5.94;100.00;101235.75;4989981;28;20035;-68
2024/02/21 02:09:43;;;;;;;23.88;14.82;;;;;;;5.95;100.00;101230.72;4989232;28;20026;-68
2024/02/21 02:12:08;;;;;;;25.67;15.27;;;;;;;5.99;100.00;101232.78;4989535;28;20482;-69
2024/02/21 02:14:34;;;;;;;27.27;16.13;;;;;;;6.01;100.00;101231.97;4989939;28;20078;-69
2024/02/21 02:16:59;;;;;;;24.42;13.63;;;;;;;6.03;100.00;101231.31;4990213;28;20050;-69
2024/02/21 02:19:25;;;;;;;23.25;15.30;;;;;;;6.06;100.00;101238.31;4989897;28;20041;-71
2024/02/21 02:21:55;;;;;;;23.10;14.15;;;;;;;5.96;100.00;101206.88;4989574;28;20042;-68
2024/02/21 02:24:23;;;;;;;26.58;14.65;;;;;;;6.01;100.00;101225.19;4980698;28;20038;-68
2024/02/21 02:26:49;;;;;;;27.70;14.68;;;;;;;6.01;100.00;101239.66;4990040;28;20034;-68
2024/02/21 02:29:15;;;;;;;26.30;15.35;;;;;;;5.92;100.00;101235.66;4989549;28;20478;-69
2024/02/21 02:31:40;;;;;;;26.20;15.27;;;;;;;5.77;100.00;101225.25;4989542;28;20512;-68
2024/02/21 02:34:06;;;;;;;25.40;14.20;;;;;;;5.80;100.00;101227.13;4989368;28;20092;-71
2024/02/21 02:36:35;;;;;;;25.80;15.02;;;;;;;5.80;100.00;101233.13;4989197;28;20030;-69
2024/02/21 02:39:01;;;;;;;26.65;15.77;;;;;;;5.81;100.00;101232.34;4993958;28;20500;-68
2024/02/21 02:41:26;;;;;;;27.00;15.73;;;;;;;5.81;100.00;101229.78;4992895;28;20035;-69
2024/02/21 02:43:52;;;;;;;27.50;16.23;;;;;;;5.82;100.00;101228.13;4993161;28;20072;-68
2024/02/21 02:46:17;;;;;;;26.50;14.75;;;;;;;5.82;100.00;101230.69;4993425;28;20045;-69
2024/02/21 02:48:43;;;;;;;26.35;15.35;;;;;;;5.67;100.00;101213.47;4994243;28;20470;-69
2024/02/21 02:51:08;;;;;;;24.35;14.95;;;;;;;5.76;100.00;101240.53;4993282;28;20101;-69
2024/02/21 02:53:34;;;;;;;26.23;14.80;;;;;;;5.25;100.00;101158.50;4993506;28;20405;-69
2024/02/21 02:55:59;;;;;;;28.00;14.73;;;;;;;5.57;100.00;101228.09;4992644;28;20026;-70
2024/02/21 02:58:25;;;;;;;22.33;14.40;;;;;;;5.40;100.00;101224.38;4993909;28;20394;-68
2024/02/21 03:00:50;;;;;;;24.10;14.35;;;;;;;4.89;100.00;101159.41;4943503;28;20046;-69
2024/02/21 03:03:16;;;;;;;23.67;13.40;;;;;;;5.11;100.00;101220.63;4977607;28;20027;-69
2024/02/21 03:05:41;;;;;;;22.77;13.93;;;;;;;4.99;100.00;101221.53;4992868;28;20035;-69
2024/02/21 03:08:08;;;;;;;25.05;14.82;;;;;;;4.51;100.00;101148.16;4992878;28;20042;-68
2024/02/21 03:10:33;;;;;;;25.25;14.95;;;;;;;4.80;100.00;101191.19;4992727;28;20400;-68
2024/02/21 03:12:59;;;;;;;28.80;14.95;;;;;;;5.08;100.00;101230.66;4992863;28;20046;-69
2024/02/21 03:15:25;;;;;;;28.15;15.95;;;;;;;4.95;100.00;101200.78;4992476;28;20037;-69
2024/02/21 03:17:50;;;;;;;27.83;17.08;;;;;;;5.08;100.00;101226.44;4992472;28;20128;-69
2024/02/21 03:20:16;;;;;;;29.83;16.60;;;;;;;5.18;100.00;101239.13;4977777;28;20541;-68
2024/02/21 03:22:43;;;;;;;31.55;16.20;;;;;;;5.26;100.00;101241.31;4992690;28;20054;-70
2024/02/21 03:25:10;;;;;;;31.90;16.35;;;;;;;5.28;100.00;101243.22;4992631;28;20517;-68
2024/02/21 03:27:35;;;;;;;27.52;16.60;;;;;;;4.85;100.00;101166.84;4992487;28;20037;-68
2024/02/21 03:30:01;;;;;;;27.95;16.30;;;;;;;5.32;100.00;101241.75;4992406;28;20038;-69
2024/02/21 03:32:28;;;;;;;27.70;16.08;;;;;;;4.95;100.00;101164.94;4992748;28;20459;-69
2024/02/21 03:34:54;;;;;;;29.55;16.33;;;;;;;5.43;100.00;101253.66;4991860;28;20510;-71
2024/02/21 03:37:20;;;;;;;32.08;17.23;;;;;;;5.33;100.00;101258.91;4976624;28;20422;-68
2024/02/21 03:39:45;;;;;;;30.77;16.85;;;;;;;5.22;100.00;101242.78;4958112;28;20054;-68
2024/02/21 03:42:11;;;;;;;38.47;21.23;;;;;;;5.23;100.00;101256.47;4992447;28;20477;-68
2024/02/21 03:44:37;;;;;;;33.67;18.50;;;;;;;5.13;100.00;101231.88;4993225;28;20441;-67
2024/02/21 03:47:02;;;;;;;42.55;21.42;;;;;;;5.27;100.00;101248.22;4989131;28;20084;-68
2024/02/21 03:49:28;;;;;;;37.38;19.80;;;;;;;5.38;100.00;101251.53;4976849;28;20045;-67
2024/02/21 03:51:54;;;;;;;31.48;16.88;;;;;;;5.41;100.00;101255.22;4990786;28;20686;-69
2024/02/21 03:54:20;;;;;;;32.97;18.17;;;;;;;5.48;100.00;101242.06;4992756;28;20038;-69
2024/02/21 03:56:47;;;;;;;29.67;17.23;;;;;;;5.15;100.00;101159.53;4992226;28;20036;-67
2024/02/21 03:59:13;;;;;;;32.42;18.13;;;;;;;5.64;100.00;101225.19;4992854;28;20049;-70
2024/02/21 04:01:39;;;;;;;30.90;17.55;;;;;;;5.81;100.00;101236.59;4957459;28;20503;-69
2024/02/21 04:04:04;;;;;;;31.58;18.08;;;;;;;5.74;100.00;101226.72;4991262;28;20198;-69
2024/02/21 04:06:29;;;;;;;30.70;17.38;;;;;;;5.63;100.00;101218.28;4987998;28;20034;-67
2024/02/21 04:08:55;;;;;;;33.17;18.08;;;;;;;5.70;100.00;101227.31;4991608;28;20077;-67
2024/02/21 04:11:21;;;;;;;31.55;17.60;;;;;;;5.69;100.00;101230.63;4988403;28;20088;-68
2024/02/21 04:13:48;;;;;;;36.53;17.60;;;;;;;5.55;100.00;101222.00;4991263;28;20026;-72
2024/02/21 04:16:15;;;;;;;32.22;17.45;;;;;;;5.57;100.00;101216.19;4991388;28;20030;-69
2024/02/21 04:18:41;;;;;;;33.70;18.95;;;;;;;5.21;100.00;101187.25;4992041;28;20413;-71
2024/02/21 04:21:06;;;;;;;30.45;18.38;;;;;;;5.39;100.00;101215.78;4991577;28;20027;-69
2024/02/21 04:23:32;;;;;;;36.80;20.45;;;;;;;4.98;100.00;101145.56;4991708;28;20037;-69
2024/02/21 04:25:57;;;;;;;33.92;18.83;;;;;;;5.53;100.00;101227.00;4991522;28;20041;-68
2024/02/21 04:28:23;;;;;;;35.88;19.42;;;;;;;5.56;100.00;101226.31;4991478;28;20486;-70
2024/02/21 04:30:48;;;;;;;39.80;20.27;;;;;;;5.25;100.00;101171.31;4991959;28;20037;-68
2024/02/21 04:33:14;;;;;;;35.35;20.25;;;;;;;5.55;100.00;101217.75;4991520;28;20034;-70
2024/02/21 04:35:39;;;;;;;33.30;19.10;;;;;;;5.67;100.00;101239.09;4991113;28;20038;-68
2024/02/21 04:38:05;;;;;;;32.25;19.52;;;;;;;5.70;100.00;101235.84;4991133;28;20172;-69
2024/02/21 04:40:30;;;;;;;30.52;18.65;;;;;;;5.80;100.00;101229.69;4991006;28;20036;-68
2024/02/21 04:42:57;;;;;;;34.05;20.40;;;;;;;5.71;100.00;101216.25;4991141;28;20018;-68
2024/02/21 04:45:22;;;;;;;33.25;18.92;;;;;;;5.79;100.00;101231.34;4992215;28;20026;-68
2024/02/21 04:47:48;;;;;;;30.23;17.00;;;;;;;5.78;100.00;101242.41;4990974;28;20030;-70
2024/02/21 04:50:14;;;;;;;32.78;19.50;;;;;;;5.75;100.00;101241.31;4991131;28;20105;-69
2024/02/21 04:52:39;;;;;;;34.55;18.65;;;;;;;5.76;100.00;101245.66;4990450;28;20153;-69
2024/02/21 04:55:05;;;;;;;30.42;17.52;;;;;;;5.76;100.00;101248.22;4990797;28;20045;-70
2024/02/21 04:57:32;;;;;;;31.15;17.15;;;;;;;5.78;100.00;101252.66;4990248;28;20153;-69
2024/02/21 04:59:57;;;;;;;29.38;16.95;;;;;;;5.76;100.00;101254.22;4990556;28;20026;-70
2024/02/21 05:02:24;;;;;;;30.65;15.95;;;;;;;5.73;100.00;101256.59;4990832;28;20030;-68
2024/02/21 05:04:50;;;;;;;33.97;18.80;;;;;;;5.69;100.00;101249.44;4960912;28;20525;-68
2024/02/21 05:07:16;;;;;;;37.10;18.17;;;;;;;5.50;100.00;101221.69;4990780;28;20485;-69
2024/02/21 05:09:42;;;;;;;34.15;20.17;;;;;;;5.17;100.00;101175.00;4990478;28;20546;-68
2024/02/21 05:12:08;;;;;;;32.95;20.15;;;;;;;5.57;100.00;101249.50;4990430;28;20164;-69
2024/02/21 05:14:34;;;;;;;30.85;18.05;;;;;;;5.53;100.00;101247.47;4990256;28;20116;-70
2024/02/21 05:16:59;;;;;;;36.20;19.70;;;;;;;5.57;100.00;101266.53;4991009;28;20409;-75
2024/02/21 05:19:25;;;;;;;33.30;19.30;;;;;;;5.55;100.00;101280.91;4990669;28;20092;-69
2024/02/21 05:21:50;;;;;;;30.67;17.77;;;;;;;5.52;100.00;101281.59;4990641;28;20402;-69
2024/02/21 05:24:16;;;;;;;26.48;16.70;;;;;;;5.45;100.00;101289.63;4990479;28;20030;-69
2024/02/21 05:26:42;;;;;;;31.23;16.45;;;;;;;5.34;100.00;101271.81;4990642;28;20092;-70
2024/02/21 05:29:07;;;;;;;27.55;16.20;;;;;;;5.45;100.00;101295.63;4990695;28;20023;-70
2024/02/21 05:31:57;;;;;;;30.90;17.35;;;;;;;5.16;100.00;101232.13;4990210;28;20031;-69
2024/02/21 05:34:22;;;;;;;26.50;16.55;;;;;;;5.48;100.00;101294.94;4921804;29;20115;-69
2024/02/21 05:36:51;;;;;;;28.58;17.17;;;;;;;5.43;100.00;101288.59;4930046;29;20043;-71
2024/02/21 05:39:17;;;;;;;29.83;17.10;;;;;;;5.44;100.00;101300.63;4930926;29;20036;-69
2024/02/21 05:41:43;;;;;;;34.65;18.75;;;;;;;5.45;100.00;101298.19;4929826;29;20539;-71
2024/02/21 05:44:08;;;;;;;27.92;16.70;;;;;;;5.41;100.00;101297.84;4929865;29;20055;-71
2024/02/21 05:46:35;;;;;;;32.08;17.50;;;;;;;5.28;100.00;101298.66;4929391;29;20082;-69
2024/02/21 05:49:00;;;;;;;28.05;16.90;;;;;;;5.34;100.00;101299.09;4928276;29;20039;-70
2024/02/21 05:51:26;;;;;;;29.42;16.90;;;;;;;5.35;100.00;101301.75;4930097;29;20159;-70
2024/02/21 05:53:52;;;;;;;27.95;15.35;;;;;;;5.33;100.00;101295.66;4913811;29;20043;-70
2024/02/21 05:56:18;;;;;;;27.83;15.68;;;;;;;5.46;100.00;101301.66;4930046;29;20087;-70
2024/02/21 05:58:43;;;;;;;30.95;16.73;;;;;;;5.43;100.00;101304.88;4929679;29;20044;-70
2024/02/21 06:01:09;;;;;;;26.02;17.20;;;;;;;5.43;100.00;101301.41;4929731;29;20042;-69
2024/02/21 06:03:36;;;;;;;29.77;17.13;;;;;;;5.45;100.00;101302.41;4928817;29;20032;-72
2024/02/21 06:06:02;;;;;;;38.28;20.77;;;;;;;5.46;100.00;101312.75;4945865;29;20370;-69
2024/02/21 06:08:28;;;;;;;90.20;38.53;;;;;;;5.48;100.00;101310.31;4929299;29;20488;-69
2024/02/21 06:10:54;;;;;;;137.55;53.60;;;;;;;5.14;100.00;101243.91;4947738;28;20046;-69
2024/02/21 06:13:29;;;;;;;59.25;32.33;;;;;;;5.40;100.00;101296.97;4989534;28;20065;-69
2024/02/21 06:15:54;;;;;;;42.45;24.30;;;;;;;5.08;100.00;101249.47;4990452;28;20166;-70
2024/02/21 06:18:21;;;;;;;33.67;20.55;;;;;;;4.98;100.00;101244.47;4989547;28;20506;-70
2024/02/21 06:20:47;;;;;;;38.65;22.33;;;;;;;5.22;100.00;101283.75;4978735;28;20045;-69
2024/02/21 06:23:19;;;;;;;35.85;22.70;;;;;;;5.21;100.00;101299.88;4989880;28;20066;-69
2024/02/21 06:25:46;;;;;;;39.78;23.20;;;;;;;5.37;100.00;101319.81;4990218;28;20030;-69
2024/02/21 06:28:12;;;;;;;35.85;21.13;;;;;;;5.29;100.00;101316.66;4937607;28;20046;-69
2024/02/21 06:30:39;;;;;;;35.55;21.23;;;;;;;5.34;100.00;101322.13;4989612;28;20042;-68
2024/02/21 06:33:04;;;;;;;41.33;27.23;;;;;;;5.38;100.00;101321.56;4990885;28;20548;-68
2024/02/21 06:35:30;;;;;;;36.58;24.70;;;;;;;5.43;100.00;101317.69;4989641;28;20486;-69
2024/02/21 06:37:55;;;;;;;36.65;21.35;;;;;;;5.36;100.00;101302.66;4989996;28;20042;-69
2024/02/21 06:40:22;;;;;;;32.47;20.63;;;;;;;5.51;100.00;101324.22;4989611;28;20034;-70
2024/02/21 06:42:48;;;;;;;37.33;21.42;;;;;;;5.58;100.00;101328.13;4990503;28;20116;-69
2024/02/21 06:45:14;;;;;;;38.60;22.40;;;;;;;5.63;100.00;101331.00;4960815;28;20125;-68
2024/02/21 06:47:40;;;;;;;34.88;20.73;;;;;;;5.64;100.00;101328.53;4990427;28;20072;-69
2024/02/21 06:50:06;;;;;;;34.92;21.35;;;;;;;5.67;100.00;101333.88;4989920;28;20467;-68
2024/02/21 06:52:31;;;;;;;35.75;21.08;;;;;;;5.67;100.00;101315.97;4990363;28;20125;-68
2024/02/21 06:54:57;;;;;;;32.30;20.00;;;;;;;5.79;100.00;101332.97;4988874;28;20105;-71
2024/02/21 06:57:23;;;;;;;36.60;19.60;;;;;;;5.76;100.00;101322.53;4989986;28;20032;-68
2024/02/21 06:59:49;;;;;;;31.67;19.40;;;;;;;5.79;100.00;101313.34;4962001;28;20443;-69
2024/02/21 07:02:14;;;;;;;32.90;18.92;;;;;;;5.80;100.00;101333.06;4989768;28;20417;-69
2024/02/21 07:04:40;;;;;;;36.00;20.55;;;;;;;5.83;100.00;101333.31;4989143;28;20034;-68
2024/02/21 07:07:05;;;;;;;35.47;20.42;;;;;;;5.92;100.00;101340.75;4989614;28;20446;-69
2024/02/21 07:09:31;;;;;;;35.10;20.38;;;;;;;6.02;100.00;101326.94;4987193;28;20413;-70
2024/02/21 07:12:00;;;;;;;35.70;20.48;;;;;;;6.05;100.00;101329.69;4990173;28;20034;-70
2024/02/21 07:14:26;;;;;;;34.33;20.25;;;;;;;5.60;100.00;101261.63;4988704;28;20613;-69
2024/02/21 07:16:51;;;;;;;36.80;20.50;;;;;;;5.72;100.00;101325.63;4989922;28;20074;-69
2024/02/21 07:19:17;;;;;;;38.60;21.05;;;;;;;5.77;100.00;101332.88;4978575;28;20414;-69
2024/02/21 07:21:43;;;;;;;38.05;22.20;;;;;;;5.84;100.00;101326.50;4989731;28;20034;-69
2024/02/21 07:24:09;;;;;;;40.25;22.92;;;;;;;5.91;100.00;101326.13;4993307;28;20026;-70
2024/02/21 07:26:34;;;;;;;40.65;24.75;;;;;;;5.88;100.00;101327.59;4992973;28;20066;-69
2024/02/21 07:29:00;;;;;;;37.05;23.55;;;;;;;5.96;100.00;101326.47;4992471;28;20085;-69
2024/02/21 07:31:26;;;;;;;42.72;23.90;;;;;;;5.96;100.00;101326.47;4992467;28;20113;-70
2024/02/21 07:33:51;;;;;;;37.83;22.48;;;;;;;6.01;100.00;101325.13;4992242;28;20033;-69
2024/02/21 07:36:29;;;;;;;45.65;24.95;;;;;;;6.13;100.00;101319.94;4993181;28;20484;-69
2024/02/21 07:38:55;;;;;;;38.42;24.23;;;;;;;6.19;100.00;101328.06;4991986;28;20038;-73
2024/02/21 07:41:20;;;;;;;37.75;23.38;;;;;;;6.20;100.00;101331.53;4992496;28;20505;-70
2024/02/21 07:43:46;;;;;;;40.13;23.08;;;;;;;6.23;100.00;101332.63;4992016;28;20096;-69
2024/02/21 07:46:11;;;;;;;36.15;22.45;;;;;;;6.23;100.00;101340.34;4992569;28;20513;-69
2024/02/21 07:48:37;;;;;;;41.25;24.92;;;;;;;6.27;100.00;101338.88;4992232;28;20035;-73
2024/02/21 07:51:02;;;;;;;38.55;24.90;;;;;;;6.39;100.00;101338.78;4992083;28;20120;-69
2024/02/21 07:53:28;;;;;;;38.97;25.75;;;;;;;6.38;100.00;101340.50;4992348;28;20410;-69
2024/02/21 07:55:53;;;;;;;39.80;25.30;;;;;;;6.43;100.00;101339.13;4983701;28;20042;-68
2024/02/21 07:58:19;;;;;;;38.00;23.27;;;;;;;6.54;100.00;101338.94;4991624;28;20253;-70
2024/02/21 08:00:44;;;;;;;37.25;23.98;;;;;;;6.61;100.00;101347.16;4992789;28;20076;-70
2024/02/21 08:03:10;;;;;;;35.75;22.95;;;;;;;6.21;100.00;101264.97;4992323;28;20030;-69
2024/02/21 08:05:35;;;;;;;38.15;23.85;;;;;;;6.58;100.00;101325.53;4992178;28;20093;-70
2024/02/21 08:08:02;;;;;;;44.10;24.85;;;;;;;6.78;100.00;101340.59;4991796;28;20521;-70
2024/02/21 08:10:28;;;;;;;36.00;22.55;;;;;;;6.99;100.00;101340.22;4992347;28;20403;-68
2024/02/21 08:12:53;;;;;;;35.65;23.52;;;;;;;7.15;100.00;101331.81;4989853;28;20103;-69
2024/02/21 08:15:19;;;;;;;34.50;21.83;;;;;;;7.20;100.00;101334.69;4991812;28;20035;-69
2024/02/21 08:17:44;;;;;;;36.47;23.67;;;;;;;7.12;100.00;101329.06;4991794;28;20050;-68
2024/02/21 08:20:10;;;;;;;39.38;22.10;;;;;;;7.16;100.00;101330.16;4963530;28;20050;-68
2024/02/21 08:22:38;;;;;;;34.35;22.00;;;;;;;6.92;100.00;101249.06;4992204;28;20035;-69
2024/02/21 08:25:05;;;;;;;39.00;23.23;;;;;;;7.57;100.00;101327.66;4991957;28;20030;-74
2024/02/21 08:27:31;;;;;;;34.25;21.83;;;;;;;7.72;100.00;101322.56;4991886;28;20061;-69
2024/02/21 08:29:57;;;;;;;38.78;23.42;;;;;;;7.91;100.00;101328.84;4982065;28;20038;-69
2024/02/21 08:32:22;;;;;;;37.92;23.70;;;;;;;8.04;100.00;101333.09;4991167;28;20092;-70
2024/02/21 08:34:48;;;;;;;35.85;22.02;;;;;;;8.18;100.00;101326.19;4991821;28;20513;-69
2024/02/21 08:37:13;;;;;;;35.42;22.70;;;;;;;8.30;100.00;101324.38;4991524;28;20053;-70
2024/02/21 08:39:38;;;;;;;34.60;21.23;;;;;;;8.44;100.00;101330.34;4991925;28;20081;-70
2024/02/21 08:42:05;;;;;;;38.65;22.20;;;;;;;8.34;100.00;101341.75;4992175;28;20422;-69
2024/02/21 08:44:30;;;;;;;35.40;22.35;;;;;;;8.35;100.00;101345.19;4991813;28;20034;-69
2024/02/21 08:46:56;;;;;;;31.90;21.65;;;;;;;8.46;100.00;101346.81;4991470;28;20034;-68
2024/02/21 08:49:21;;;;;;;35.10;22.30;;;;;;;8.52;100.00;101344.59;4991381;28;20505;-69
2024/02/21 08:51:47;;;;;;;29.85;20.02;;;;;;;8.64;100.00;101346.97;4991449;28;20506;-68
2024/02/21 08:54:12;;;;;;;38.13;22.50;;;;;;;8.67;100.00;101349.75;4991262;28;20031;-68
2024/02/21 08:56:38;;;;;;;32.97;21.33;;;;;;;8.77;100.00;101342.56;4991351;28;20037;-69
2024/02/21 08:59:04;;;;;;;30.50;21.40;;;;;;;8.66;100.00;101340.25;4991149;28;20034;-69
2024/02/21 09:01:29;;;;;;;35.60;21.10;;;;;;;8.83;100.00;101343.78;4991950;28;20034;-70
2024/02/21 09:03:56;;;;;;;37.47;22.95;;;;;;;8.96;100.00;101355.72;4990969;28;20037;-69
2024/02/21 09:06:22;;;;;;;35.25;22.10;;;;;;;8.98;100.00;101355.78;4991110;28;20037;-70
2024/02/21 09:08:48;;;;;;;36.30;21.75;;;;;;;9.12;100.00;101356.56;4991292;28;20474;-68
2024/02/21 09:11:34;;;;;;;35.03;21.40;;;;;;;9.05;100.00;101363.94;4956747;28;20042;-69
2024/02/21 09:13:59;;;;;;;29.63;18.55;;;;;;;9.14;100.00;101358.44;4922615;28;20042;-70
2024/02/21 09:16:25;;;;;;;28.38;18.75;;;;;;;9.25;100.00;101343.59;4961216;28;20113;-70
2024/02/21 09:18:50;;;;;;;31.88;19.67;;;;;;;8.95;100.00;101270.59;4963214;28;20042;-69
2024/02/21 09:21:16;;;;;;;28.63;18.15;;;;;;;9.10;100.00;101281.78;4959677;28;20456;-68
2024/02/21 09:23:41;;;;;;;31.02;18.48;;;;;;;9.44;100.00;101303.38;4959192;28;20609;-68
2024/02/21 09:26:10;;;;;;;28.60;19.25;;;;;;;9.85;100.00;101346.88;4958975;28;20058;-69
2024/02/21 09:28:35;;;;;;;28.17;18.02;;;;;;;9.67;100.00;101323.56;4960842;28;20442;-68
2024/02/21 09:31:01;;;;;;;28.90;18.58;;;;;;;9.82;100.00;101340.66;4958744;28;20111;-69
2024/02/21 09:33:27;;;;;;;27.13;17.98;;;;;;;10.01;100.00;101342.56;4960582;28;20102;-69
2024/02/21 09:35:52;;;;;;;93.03;47.13;;;;;;;9.72;100.00;101282.56;4940620;28;20047;-69
2024/02/21 09:38:18;;;;;;;28.05;17.42;;;;;;;10.00;100.00;101339.06;4963078;28;20054;-69
2024/02/21 09:40:44;;;;;;;21.25;14.63;;;;;;;10.09;100.00;101346.41;4953021;28;20134;-68
2024/02/21 09:43:09;;;;;;;22.52;15.30;;;;;;;10.32;100.00;101357.09;4985118;28;20053;-69
2024/02/21 09:45:35;;;;;;;22.40;15.65;;;;;;;10.37;100.00;101327.25;4989976;28;20034;-68
2024/02/21 09:48:26;;;;;;;23.20;15.52;;;;;;;10.62;100.00;101344.00;4962876;28;20043;-69
2024/02/21 09:50:53;;;;;;;23.20;14.27;;;;;;;10.82;100.00;101330.38;4988683;28;20069;-69
2024/02/21 09:53:19;;;;;;;24.55;16.55;;;;;;;10.97;100.00;101326.81;4991303;28;20115;-68
2024/02/21 09:55:46;;;;;;;21.42;13.48;;;;;;;11.02;100.00;101311.53;4990210;28;20034;-68
2024/02/21 09:58:12;;;;;;;21.13;12.13;;;;;;;10.51;100.00;101313.34;4961811;28;20065;-67
2024/02/21 10:00:38;;;;;;;21.08;13.48;;;;;;;10.71;100.00;101328.09;4985725;28;20084;-68
2024/02/21 10:03:08;;;;;;;20.67;13.70;;;;;;;10.87;100.00;101322.88;4990368;28;20117;-67
2024/02/21 10:05:38;;;;;;;21.20;12.45;;;;;;;10.95;100.00;101320.66;4990198;28;20193;-68
2024/02/21 10:08:04;;;;;;;23.83;14.75;;;;;;;10.65;100.00;101259.84;4990099;28;20046;-68
2024/02/21 10:10:30;;;;;;;21.00;14.27;;;;;;;10.93;100.00;101322.28;4990070;28;20390;-67
2024/02/21 10:12:56;;;;;;;21.33;12.82;;;;;;;11.14;100.00;101320.75;4989947;28;20110;-68
2024/02/21 10:15:23;;;;;;;19.00;11.18;;;;;;;11.22;100.00;101320.25;4989977;28;20493;-69
2024/02/21 10:17:58;;;;;;;18.48;10.82;;;;;;;10.76;100.00;101251.72;4990305;28;20132;-71
2024/02/21 10:20:24;;;;;;;21.08;12.00;;;;;;;11.18;100.00;101324.38;4985837;28;20045;-69
2024/02/21 10:23:13;;;;;;;21.13;13.20;;;;;;;11.17;100.00;101309.69;4990477;28;20411;-69
2024/02/21 10:25:41;;;;;;;20.67;12.27;;;;;;;11.07;100.00;101303.19;4989635;28;20097;-68
2024/02/21 10:28:07;;;;;;;20.35;12.02;;;;;;;10.91;100.00;101305.84;4988365;28;20022;-68
2024/02/21 10:30:32;;;;;;;20.73;12.02;;;;;;;10.96;100.00;101275.94;4990651;28;20030;-68
2024/02/21 10:32:58;;;;;;;16.85;11.45;;;;;;;11.29;100.00;101296.44;4990286;28;20088;-69
2024/02/21 10:35:31;;;;;;;17.23;11.77;;;;;;;11.11;100.00;101219.81;4990117;28;20026;-68
2024/02/21 10:37:57;;;;;;;17.75;10.27;;;;;;;11.42;100.00;101290.16;4990146;28;20062;-68
2024/02/21 10:40:44;;;;;;;18.83;11.98;;;;;;;11.49;99.67;101293.09;4935375;29;20043;-69
2024/02/21 10:43:14;;;;;;;18.17;11.93;;;;;;;11.35;100.00;101281.22;4938174;29;20047;-68
2024/02/21 10:45:41;;;;;;;23.08;14.88;;;;;;;11.42;99.61;101288.44;4936780;28;20055;-68
2024/02/21 10:48:14;;;;;;;17.20;11.98;;;;;;;11.38;98.45;101288.25;4937470;29;20567;-69
2024/02/21 10:51:19;;;;;;;15.68;11.40;;;;;;;11.72;96.61;101292.38;4938251;29;20047;-69
2024/02/21 10:53:55;;;;;;;24.20;13.27;;;;;;;11.74;92.45;101286.47;4922726;29;20103;-68
2024/02/21 10:56:29;;;;;;;23.00;14.40;;;;;;;11.98;94.74;101280.66;4940257;28;20047;-69
2024/02/21 10:58:57;;;;;;;18.08;11.82;;;;;;;12.18;93.43;101270.28;4940650;29;20083;-67
2024/02/21 11:01:24;;;;;;;15.20;10.40;;;;;;;12.19;88.05;101248.78;4940198;29;20043;-67
2024/02/21 11:03:53;;;;;;;16.58;10.73;;;;;;;12.17;88.14;101246.09;4944774;29;20113;-68
2024/02/21 11:06:21;;;;;;;15.07;10.82;;;;;;;12.19;90.23;101228.94;4938767;29;20044;-67